• Join FlightAware (Why Join?)
  • Login
  • US Flag 
12:22AM EDT


 

Airport Tracker/Info


-or-


 

Live Flight TrackerFlight Track Log ✈ ASA630 ✈ 05-May-2013 ✈ KSEA - KPHX

Flight Track Log - Related Links

Times and Time Zones

All times are in EDT time to prevent confusion due to time zone crossing. See the ASA630 flight status page for this flight to view local times or setup timezone preferences in your user account.

Time Position Orientation Groundspeed Altitude Reporting Facility
EDT Latitude Longitude Course Direction KTS MPH feet Rate Location/Type
10:53PM 47.4689 -122.3114 North 157 181 1,300  Level Seattle Center
10:53PM 47.4786 -122.3111 North 150 173 1,800 1,680 Climbing Seattle Center
10:54PM 47.5331 -122.3100 North 206 237 3,500 1,920 Climbing Seattle Center
10:55PM 47.6050 -122.2883 11° North 261 300 5,800 2,700 Climbing Seattle Center
10:56PM 47.5939 -122.1892 99° East 274 315 9,000 2,640 Climbing Seattle Center
10:57PM 47.5167 -122.1686 170° South 287 330 11,200 1,800 Climbing Seattle Center
10:58PM 47.4219 -122.1456 171° South 346 398 12,700 1,920 Climbing Seattle Center
10:59PM 47.3172 -122.1256 173° South 376 433 15,100 2,280 Climbing Seattle Center
11:01PM 47.2056 -122.1031 172° South 402 463 17,400 1,920 Climbing Seattle Center
11:02PM 47.0956 -122.0606 165° South 422 486 19,000 900 Climbing Seattle Center
11:03PM 46.9978 -121.9761 149° Southeast 412 474 19,300 1,140 Climbing Seattle Center
11:04PM 46.8969 -121.8964 152° Southeast 416 479 21,400 1,980 Climbing Seattle Center
11:05PM 46.7953 -121.8103 150° Southeast 425 489 23,400 1,860 Climbing Seattle Center
11:06PM 46.6903 -121.7231 150° Southeast 437 503 25,200 1,620 Climbing Seattle Center
11:07PM 46.5833 -121.6319 150° Southeast 447 514 26,700 1,380 Climbing Seattle Center
11:08PM 46.4753 -121.5431 150° Southeast 447 514 28,000 1,320 Climbing Seattle Center
11:09PM 46.3639 -121.4497 150° Southeast 460 529 29,400 1,320 Climbing Seattle Center
11:10PM 46.2511 -121.3569 150° Southeast 465 535 30,700 1,440 Climbing Seattle Center
11:11PM 46.1400 -121.2669 151° Southeast 461 531 32,400 1,500 Climbing Seattle Center
11:12PM 46.0297 -121.1767 150° Southeast 457 526 33,800 1,560 Climbing Seattle Center
11:13PM 45.9000 -121.0725 151° Southeast 449 517 35,600 1,320 Climbing Seattle Center
11:14PM 45.7936 -120.9867 151° Southeast 442 509 36,500 660 Climbing Seattle Center
11:15PM 45.6867 -120.8994 150° Southeast 442 509 37,000 240 Climbing Seattle Center
11:16PM 45.5789 -120.8131 151° Southeast 445 512 37,000  Level Seattle Center
11:17PM 45.4703 -120.7269 151° Southeast 447 514 37,000  Level Seattle Center
11:18PM 45.3625 -120.6425 151° Southeast 445 512 37,000  Level Seattle Center
11:19PM 45.2542 -120.5564 151° Southeast 447 514 37,000  Level Seattle Center
11:20PM 45.1469 -120.4719 151° Southeast 446 513 37,000  Level Seattle Center
11:21PM 45.0389 -120.3875 151° Southeast 447 514 37,000  Level Seattle Center
11:22PM 44.9331 -120.3044 151° Southeast 444 511 37,000  Level Seattle Center
11:23PM 44.8264 -120.2222 151° Southeast 443 510 37,000  Level Seattle Center
11:24PM 44.7206 -120.1400 151° Southeast 443 510 37,000  Level Seattle Center
11:25PM 44.5931 -120.0422 151° Southeast 440 506 37,000  Level Seattle Center
11:26PM 44.4853 -119.9592 151° Southeast 443 510 37,000  Level Seattle Center
11:27PM 44.3758 -119.8769 152° Southeast 448 516 37,000  Level Seattle Center
11:28PM 44.2658 -119.7933 151° Southeast 450 518 37,000  Level Seattle Center
11:29PM 44.1550 -119.7097 152° Southeast 454 522 37,000  Level Seattle Center
11:30PM 44.0439 -119.6264 152° Southeast 456 525 37,000  Level Seattle Center
11:31PM 43.9328 -119.5433 152° Southeast 455 524 37,000  Level Seattle Center
11:32PM 43.8217 -119.4586 151° Southeast 456 525 37,000  Level Seattle Center
11:33PM 43.7094 -119.3775 152° Southeast 456 525 37,000  Level Seattle Center
11:34PM 43.5994 -119.2956 152° Southeast 452 520 37,000  Level Seattle Center
11:35PM 43.4894 -119.2136 152° Southeast 450 518 37,000  Level Seattle Center
11:36PM 43.3869 -119.1167 145° Southeast 452 520 37,000  Level Seattle Center
11:37PM 43.2764 -118.9889 140° Southeast 451 519 37,000  Level Seattle Center
11:38PM 43.1847 -118.8836 140° Southeast 450 518 37,000  Level Seattle Center
11:39PM 43.1192 -118.8081 140° Southeast 453 521 37,000  Level Salt Lake Center
11:40PM 43.0231 -118.6964 140° Southeast 454 522 37,000  Level Salt Lake Center
11:41PM 42.9253 -118.5867 141° Southeast 455 524 37,000  Level Salt Lake Center
11:42PM 42.8281 -118.4747 140° Southeast 459 528 37,000  Level Salt Lake Center
11:43PM 42.7306 -118.3650 140° Southeast 454 522 37,000  Level Salt Lake Center
11:44PM 42.6342 -118.2553 140° Southeast 453 521 37,000  Level Salt Lake Center
11:45PM 42.5181 -118.1225 140° Southeast 465 535 37,000 300 Level Salt Lake Center
11:46PM 42.4256 -118.0178 140° Southeast 457 526 37,700 720 Climbing Salt Lake Center
11:47PM 42.3325 -117.9131 140° Southeast 455 524 38,500 600 Climbing Salt Lake Center
11:48PM 42.2242 -117.7942 141° Southeast 452 520 39,000 240 Climbing Salt Lake Center
11:49PM 42.1289 -117.6925 142° Southeast 447 514 39,000  Level Salt Lake Center
11:50PM 42.0367 -117.5897 140° Southeast 449 517 39,000  Level Salt Lake Center
11:51PM 41.9269 -117.4661 140° Southeast 459 528 39,000  Level Salt Lake Center
11:52PM 41.8350 -117.3647 141° Southeast 450 518 39,000  Level Salt Lake Center
11:53PM 41.7422 -117.2631 141° Southeast 449 517 39,000  Level Salt Lake Center
11:54PM 41.6331 -117.1492 142° Southeast 447 514 39,000  Level Salt Lake Center
11:55PM 41.5364 -117.0533 143° Southeast 451 519 39,000  Level Salt Lake Center
11:56PM 41.4381 -116.9611 145° Southeast 452 520 39,000  Level Salt Lake Center
11:57PM 41.3242 -116.8558 145° Southeast 447 514 39,000  Level Salt Lake Center
11:58PM 41.2272 -116.7650 145° Southeast 446 513 39,000  Level Salt Lake Center
11:59PM 41.1306 -116.6742 145° Southeast 445 512 39,000  Level Salt Lake Center
12:00AM 41.0178 -116.5708 145° Southeast 440 506 39,000  Level Salt Lake Center
12:01AM 40.9197 -116.4803 145° Southeast 445 512 39,000  Level Salt Lake Center
12:02AM 40.8225 -116.3914 145° Southeast 442 509 39,000  Level Salt Lake Center
12:03AM 40.7106 -116.2878 145° Southeast 440 506 39,000  Level Salt Lake Center
12:04AM 40.6131 -116.2003 146° Southeast 439 505 39,000  Level Salt Lake Center
12:05AM 40.5142 -116.1111 146° Southeast 444 511 39,000  Level Salt Lake Center
12:06AM 40.4008 -116.0075 145° Southeast 443 510 39,000  Level Salt Lake Center
12:07AM 40.3022 -115.9197 146° Southeast 445 512 39,000  Level Salt Lake Center
12:08AM 40.2028 -115.8319 146° Southeast 446 513 39,000  Level Salt Lake Center
12:09AM 40.0897 -115.7286 145° Southeast 444 511 39,000  Level Salt Lake Center
12:10AM 39.9903 -115.6397 146° Southeast 449 517 39,000  Level Salt Lake Center
12:11AM 39.8878 -115.5544 147° Southeast 453 521 39,000  Level Salt Lake Center
12:12AM 39.7725 -115.4525 146° Southeast 448 516 39,000  Level Salt Lake Center
12:13AM 39.6758 -115.3628 144° Southeast 447 514 39,000  Level Salt Lake Center
12:14AM 39.5597 -115.2619 146° Southeast 448 516 39,000  Level Salt Lake Center
12:15AM 39.4606 -115.1764 146° Southeast 447 514 39,000  Level Salt Lake Center
12:16AM 39.3603 -115.0900 146° Southeast 451 519 39,000  Level Salt Lake Center
12:17AM 39.2428 -114.9914 147° Southeast 451 519 39,000  Level Salt Lake Center
12:18AM 39.1428 -114.9019 145° Southeast 447 514 39,000  Level Salt Lake Center
12:19AM 39.0394 -114.8139 146° Southeast 446 513 39,000  Level Salt Lake Center
12:20AM 38.9369 -114.7244 146° Southeast 447 514 39,000  Level Salt Lake Center
12:21AM 38.8350 -114.6369 146° Southeast 444 511 39,000  Level Salt Lake Center
12:22AM 38.7311 -114.5483 146° Southeast 447 514 39,000  Level Salt Lake Center
12:23AM 38.6272 -114.4628 147° Southeast 446 513 39,000  Level Salt Lake Center
12:24AM 38.5236 -114.3756 147° Southeast 446 513 39,000  Level Salt Lake Center
12:26AM 38.3806 -114.2556 147° Southeast 441 507 39,000  Level Salt Lake Center
12:27AM 38.2775 -114.1686 146° Southeast 443 510 39,000  Level Salt Lake Center
12:29AM 38.0292 -113.9628 147° Southeast 446 513 39,000  Level Los Angeles Center
12:30AM 37.9256 -113.8772 147° Southeast 446 513 39,000  Level Los Angeles Center
12:31AM 37.8217 -113.7908 147° Southeast 449 517 39,000  Level Los Angeles Center
12:32AM 37.6956 -113.6886 147° Southeast 450 518 39,000  Level Salt Lake Center
12:33AM 37.5903 -113.6031 147° Southeast 452 520 39,000  Level Salt Lake Center
12:34AM 37.4639 -113.5008 147° Southeast 453 521 39,000  Level Salt Lake Center
12:35AM 37.3578 -113.4153 147° Southeast 456 525 39,000  Level Salt Lake Center
12:36AM 37.2533 -113.3314 147° Southeast 453 521 39,000  Level Salt Lake Center
12:37AM 37.1364 -113.2775 160° South 452 520 39,000  Level Salt Lake Center
12:38AM 37.0447 -113.2311 158° South 448 516 39,000  Level Los Angeles Center
12:39AM 36.9294 -113.1736 158° South 448 516 39,000  Level Los Angeles Center
12:40AM 36.8139 -113.1167 158° South 449 517 39,000  Level Los Angeles Center
12:41AM 36.6742 -113.0489 159° South 450 518 39,000 -660 Level Los Angeles Center
12:42AM 36.5600 -112.9928 158° South 446 513 37,700 -1,740 Descending Los Angeles Center
12:43AM 36.4481 -112.9378 158° South 438 504 35,500 -2,160 Descending Los Angeles Center
12:44AM 36.3361 -112.8842 159° South 434 499 33,300 -1,260 Descending Los Angeles Center
12:45AM 36.2253 -112.8292 158° South 431 496 33,000 -180 Descending Los Angeles Center
12:47AM 36.1156 -112.7769 159° South 426 490 33,000  Level Los Angeles Center
12:48AM 35.9842 -112.7128 158° South 424 488 33,000 -120 Level Los Angeles Center
12:49AM 35.8733 -112.6631 160° South 429 494 32,800 -600 Descending Los Angeles Center
12:50AM 35.7856 -112.6200 158° South 428 493 31,900 -1,380 Descending Los Angeles Center
12:51AM 35.6278 -112.5447 159° South 433 498 29,800 -1,320 Descending Los Angeles Center
12:52AM 35.4950 -112.4892 161° South 422 486 29,000 -420 Descending Los Angeles Center
12:53AM 35.3792 -112.4625 169° South 421 484 29,000  Level Los Angeles Center
12:54AM 35.3325 -112.4500 168° South 424 488 29,000  Level Albuquerque Center
12:55AM 35.2172 -112.4211 168° South 423 487 29,000  Level Albuquerque Center
12:56AM 35.1006 -112.3922 169° South 426 490 29,000 -420 Level Albuquerque Center
12:57AM 34.9839 -112.3642 169° South 427 491 28,200 -900 Descending Albuquerque Center
12:58AM 34.8661 -112.3344 168° South 431 496 27,200 -1,560 Descending Albuquerque Center
12:59AM 34.7347 -112.3028 169° South 427 491 25,100 -2,340 Descending Albuquerque Center
01:00AM 34.6247 -112.2756 168° South 412 474 22,600 -2,280 Descending Albuquerque Center
01:01AM 34.5175 -112.2492 169° South 399 459 20,500 -1,320 Descending Albuquerque Center
01:02AM 34.4219 -112.2250 168° South 364 419 20,000 -300 Descending Albuquerque Center
01:03AM 34.3314 -112.1994 167° South 340 391 20,000 -720 Level Albuquerque Center
01:04AM 34.2403 -112.1764 168° South 337 388 18,600 -1,680 Descending Albuquerque Center
01:05AM 34.1528 -112.1525 167° South 327 376 16,700 -1,440 Descending Albuquerque Center
01:06AM 34.0700 -112.1322 169° South 306 352 15,700 -1,200 Descending Albuquerque Center
01:07AM 33.9942 -112.1119 167° South 283 326 14,300 -1,440 Descending Albuquerque Center
01:08AM 33.9211 -112.0936 168° South 273 314 12,900 -1,440 Descending Albuquerque Center
01:09AM 33.8358 -112.0728 169° South 263 303 11,400 -1,440 Descending Albuquerque Center
01:10AM 33.7667 -112.0550 168° South 257 296 10,000 -720 Descending Albuquerque Center
01:11AM 33.6983 -112.0422 171° South 250 288 10,000 -360 Level Albuquerque Center
01:12AM 33.6322 -112.0308 172° South 242 278 9,300 -600 Descending Albuquerque Center
01:13AM 33.5742 -112.0164 168° South 215 247 8,800 -720 Descending Albuquerque Center
01:14AM 33.5314 -111.9706 138° Southeast 227 261 7,900 -1,080 Descending Albuquerque Center
01:15AM 33.5272 -111.8922 94° East 240 276 6,700 -1,140 Descending Albuquerque Center
01:16AM 33.5214 -111.8150 95° East 236 272 5,600 -1,020 Descending Albuquerque Center
01:17AM 33.4636 -111.8150 180° South 219 252 4,700 -1,020 Descending Albuquerque Center
01:18AM 33.4297 -111.8594 228° Southwest 186 214 3,600 -1,200 Descending Albuquerque Center
01:19AM 33.4297 -111.9200 270° West 187 215 2,400 -1,080 Descending Albuquerque Center
01:20AM 33.4314 -111.9719 272° West 160 184 1,500 -660 Descending Albuquerque Center
01:21AM 33.4294 -112.0289 268° West 153 176 1,100 -420 Descending Albuquerque Center